Nassauborg — PHDU — position and weather

sailwx.info

Track history (hours):
 
Tides and Currents Weather Stations Pressure Air Temp Water Temp Dewpoint Dewpoint Depression Visibility Wind Speed Wind Dir Waves Ship Positions

Nassauborg

Ship's website: http://www.wagenborg.com/index.cfm?pid=37&itemid=158&contentitemid=236

Last reported at 2015-May-22 18:33 UTC. Time now 2015-May-22 19:08 UTC.
Position N 55°11' E 014°08'.

Length 143 m; beam 22 m.

Type: Cargo ship. MMSI: 246430000.

Date/timePositionNaut miles runAvg speedWind from/ knotsBaromVisibWave heightAir tempDewpointWater temp
2015-May-22 18:33N 55°11' E 014°08'1311.7
2015-May-22 17:25N 55°12' E 013°45'1112.0
2015-May-22 16:31N 55°13' E 013°26'1212.2
2015-May-22 15:33N 55°14' E 013°06'1212.0
2015-May-22 14:34N 55°17' E 012°45'1010.0
2015-May-22 13:33N 55°26' E 012°41'1110.9
2015-May-22 12:34N 55°37' E 012°42'1110.6
2015-May-22 11:33N 55°48' E 012°42'1111.0
2015-May-22 10:34N 55°59' E 012°41'1110.5
2015-May-22 09:33N 56°08' E 012°31'1010.4
2015-May-22 08:33N 56°18' E 012°25'1111.3
2015-May-22 07:33N 56°28' E 012°18'1211.9
2015-May-22 06:34N 56°39' E 012°12'1211.9
2015-May-22 05:33N 56°51' E 012°05'1211.6
2015-May-22 04:33N 57°02' E 011°58'1111.2
2015-May-22 03:33N 57°12' E 011°51'1211.2
2015-May-22 02:30N 57°20' E 011°36'1111.2
2015-May-22 01:33N 57°29' E 011°23'1211.5
2015-May-22 00:33N 57°36' E 011°07'1212.1
2015-May-21 23:34N 57°44' E 010°51'40112.5
2015-May-20 15:23N 55°15' W 000°23'1011.7
2015-May-20 14:33N 55°11' W 000°39'1211.8
2015-May-20 13:33N 55°07' W 000°58'1211.9
2015-May-20 12:32N 55°02' W 001°18'4 0.1
2015-May-18 15:06N 55°01' W 001°24'6 9.8
2015-May-18 14:32N 55°03' W 001°15'2410.8
2015-May-18 12:21N 55°12' W 000°37'39810.3
2015-May-16 21:33N 57°48' E 010°27'9 8.7
2015-May-16 20:33N 57°48' E 010°43'8 8.4
2015-May-16 19:33N 57°40' E 010°36'2 0.2
2015-May-16 12:08N 57°40' E 010°39'611.1
2015-May-16 11:33N 57°38' E 010°50'1111.2
2015-May-16 10:33N 57°32' E 011°08'1211.6
2015-May-16 09:33N 57°26' E 011°27'1211.8
2015-May-16 08:33N 57°15' E 011°34'1211.8
2015-May-16 07:33N 57°04' E 011°41'1211.7
2015-May-16 06:33N 56°53' E 011°48'1110.4
2015-May-16 05:32N 56°43' E 011°51'1111.6
2015-May-16 04:33N 56°33' E 011°40'1211.5
2015-May-16 03:31N 56°23' E 011°29'10310.3
2015-May-15 17:33N 54°42' E 010°53'1111.4
2015-May-15 16:33N 54°37' E 011°11'1111.0
2015-May-15 15:33N 54°32' E 011°28'1110.5
2015-May-15 14:33N 54°28' E 011°45'1010.4
2015-May-15 13:33N 54°27' E 012°02'9 8.5
2015-May-15 12:33N 54°32' E 012°13'1010.3
2015-May-15 11:33N 54°40' E 012°25'1211.1
2015-May-15 10:28N 54°47' E 012°42'1111.2
2015-May-15 09:31N 54°51' E 012°59'1311.1
2015-May-15 08:22N 54°56' E 013°20'911.4
2015-May-15 07:32N 54°59' E 013°36'1111.8
2015-May-15 06:33N 55°03' E 013°54'1111.1
2015-May-15 05:32N 55°10' E 014°10'1111.5
2015-May-15 04:33N 55°19' E 014°23'1111.5
2015-May-15 03:33N 55°26' E 014°38'1111.3
2015-May-15 02:33N 55°32' E 014°55'1111.3
2015-May-15 01:33N 55°38' E 015°12'1611.6
2015-May-15 00:10N 55°46' E 015°37'711.6
2015-May-14 23:33N 55°49' E 015°48'  
Track history (hours):
 
Tides and Currents Weather Stations Pressure Air Temp Water Temp Dewpoint Dewpoint Depression Visibility Wind Speed Wind Dir Waves Ship Positions

Nassauborg

Ship's website: http://www.wagenborg.com/index.cfm?pid=37&itemid=158&contentitemid=236

Last reported at 2015-May-22 18:33 UTC. Time now 2015-May-22 19:08 UTC.
Position N 55°11' E 014°08'.

Length 143 m; beam 22 m.

Type: Cargo ship. MMSI: 246430000.

Date/timePositionNaut miles runAvg speedWind from/ knotsBaromVisibWave heightAir tempDewpointWater temp
2015-May-22 18:33N 55°11' E 014°08'1311.7
2015-May-22 17:25N 55°12' E 013°45'1112.0
2015-May-22 16:31N 55°13' E 013°26'1212.2
2015-May-22 15:33N 55°14' E 013°06'1212.0
2015-May-22 14:34N 55°17' E 012°45'1010.0
2015-May-22 13:33N 55°26' E 012°41'1110.9
2015-May-22 12:34N 55°37' E 012°42'1110.6
2015-May-22 11:33N 55°48' E 012°42'1111.0
2015-May-22 10:34N 55°59' E 012°41'1110.5
2015-May-22 09:33N 56°08' E 012°31'1010.4
2015-May-22 08:33N 56°18' E 012°25'1111.3
2015-May-22 07:33N 56°28' E 012°18'1211.9
2015-May-22 06:34N 56°39' E 012°12'1211.9
2015-May-22 05:33N 56°51' E 012°05'1211.6
2015-May-22 04:33N 57°02' E 011°58'1111.2
2015-May-22 03:33N 57°12' E 011°51'1211.2
2015-May-22 02:30N 57°20' E 011°36'1111.2
2015-May-22 01:33N 57°29' E 011°23'1211.5
2015-May-22 00:33N 57°36' E 011°07'1212.1
2015-May-21 23:34N 57°44' E 010°51'40112.5
2015-May-20 15:23N 55°15' W 000°23'1011.7
2015-May-20 14:33N 55°11' W 000°39'1211.8
2015-May-20 13:33N 55°07' W 000°58'1211.9
2015-May-20 12:32N 55°02' W 001°18'4 0.1
2015-May-18 15:06N 55°01' W 001°24'6 9.8
2015-May-18 14:32N 55°03' W 001°15'2410.8
2015-May-18 12:21N 55°12' W 000°37'39810.3
2015-May-16 21:33N 57°48' E 010°27'9 8.7
2015-May-16 20:33N 57°48' E 010°43'8 8.4
2015-May-16 19:33N 57°40' E 010°36'2 0.2
2015-May-16 12:08N 57°40' E 010°39'611.1
2015-May-16 11:33N 57°38' E 010°50'1111.2
2015-May-16 10:33N 57°32' E 011°08'1211.6
2015-May-16 09:33N 57°26' E 011°27'1211.8
2015-May-16 08:33N 57°15' E 011°34'1211.8
2015-May-16 07:33N 57°04' E 011°41'1211.7
2015-May-16 06:33N 56°53' E 011°48'1110.4
2015-May-16 05:32N 56°43' E 011°51'1111.6
2015-May-16 04:33N 56°33' E 011°40'1211.5
2015-May-16 03:31N 56°23' E 011°29'10310.3
2015-May-15 17:33N 54°42' E 010°53'1111.4
2015-May-15 16:33N 54°37' E 011°11'1111.0
2015-May-15 15:33N 54°32' E 011°28'1110.5
2015-May-15 14:33N 54°28' E 011°45'1010.4
2015-May-15 13:33N 54°27' E 012°02'9 8.5
2015-May-15 12:33N 54°32' E 012°13'1010.3
2015-May-15 11:33N 54°40' E 012°25'1211.1
2015-May-15 10:28N 54°47' E 012°42'1111.2
2015-May-15 09:31N 54°51' E 012°59'1311.1
2015-May-15 08:22N 54°56' E 013°20'911.4
2015-May-15 07:32N 54°59' E 013°36'1111.8
2015-May-15 06:33N 55°03' E 013°54'1111.1
2015-May-15 05:32N 55°10' E 014°10'1111.5
2015-May-15 04:33N 55°19' E 014°23'1111.5
2015-May-15 03:33N 55°26' E 014°38'1111.3
2015-May-15 02:33N 55°32' E 014°55'1111.3
2015-May-15 01:33N 55°38' E 015°12'1611.6
2015-May-15 00:10N 55°46' E 015°37'711.6
2015-May-14 23:33N 55°49' E 015°48'  

Dump ship's entire track history